createdAt,value
2022-08-26T00:08:50.040Z,1009.53
2022-08-26T00:23:50.187Z,1009.54
2022-08-26T00:38:50.170Z,1009.62
2022-08-26T00:53:50.025Z,1009.66
2022-08-26T01:08:50.194Z,1009.84
2022-08-26T01:23:50.090Z,1009.87
2022-08-26T01:38:50.093Z,1009.96
2022-08-26T01:53:50.175Z,1010.07
2022-08-26T02:08:50.050Z,1010.20
2022-08-26T02:23:50.257Z,1010.35
2022-08-26T02:38:50.197Z,1010.42
2022-08-26T02:53:50.210Z,1010.50
2022-08-26T03:08:50.359Z,1010.35
2022-08-26T03:23:50.192Z,1010.37
2022-08-26T03:38:50.229Z,1010.44
2022-08-26T03:53:50.173Z,1010.45
2022-08-26T04:08:50.366Z,1010.59
2022-08-26T04:23:50.182Z,1010.73
2022-08-26T04:38:50.342Z,1010.68
2022-08-26T04:53:50.201Z,1010.75
2022-08-26T05:08:50.160Z,1010.90
2022-08-26T05:23:50.163Z,1010.89
2022-08-26T05:38:50.186Z,1010.89
2022-08-26T05:53:54.881Z,1011.02
2022-08-26T06:08:50.350Z,1011.08
2022-08-26T06:23:50.376Z,1011.08
2022-08-26T06:38:51.751Z,1011.27
2022-08-26T06:53:50.417Z,1011.30
2022-08-26T07:08:50.350Z,1011.31
2022-08-26T07:23:50.485Z,1011.37
2022-08-26T07:38:50.452Z,1011.53
2022-08-26T07:53:52.399Z,1011.62
2022-08-26T08:08:51.590Z,1011.69
2022-08-26T08:23:50.730Z,1011.71
2022-08-26T08:38:50.719Z,1011.78
2022-08-26T08:53:50.622Z,1011.90
2022-08-26T09:08:50.596Z,1011.88
2022-08-26T09:23:51.908Z,1011.98
2022-08-26T09:38:50.315Z,1012.00
2022-08-26T09:53:50.580Z,1012.00
2022-08-26T10:08:50.433Z,1011.93
2022-08-26T10:23:50.575Z,1011.89
2022-08-26T10:38:50.599Z,1011.86
2022-08-26T10:53:51.403Z,1011.76
2022-08-26T11:08:50.548Z,1011.81
2022-08-26T11:23:50.716Z,1011.78
2022-08-26T11:38:50.409Z,1011.75
2022-08-26T11:53:50.448Z,1011.62
2022-08-26T12:08:50.723Z,1011.61
2022-08-26T12:23:50.473Z,1011.68
2022-08-26T12:38:50.660Z,1011.67
2022-08-26T12:53:50.621Z,1011.84
2022-08-26T13:08:50.523Z,1011.70
2022-08-26T13:23:50.511Z,1011.60
2022-08-26T13:38:51.976Z,1011.45
2022-08-26T13:53:50.647Z,1011.53
2022-08-26T14:08:50.582Z,1011.56
2022-08-26T14:23:50.463Z,1011.60
2022-08-26T14:38:50.696Z,1011.55
2022-08-26T14:53:50.730Z,1011.58
2022-08-26T15:08:50.854Z,1011.45
2022-08-26T15:23:50.846Z,1011.42
2022-08-26T15:38:50.736Z,1011.35
2022-08-26T15:53:50.726Z,1011.29
2022-08-26T16:08:50.573Z,1011.36
2022-08-26T16:23:50.719Z,1011.37
2022-08-26T16:38:50.593Z,1011.42
2022-08-26T16:53:50.745Z,1011.56
2022-08-26T17:08:51.677Z,1011.76
2022-08-26T17:23:50.676Z,1011.92
2022-08-26T17:38:50.825Z,1011.98
2022-08-26T17:53:50.667Z,1012.02
2022-08-26T18:08:50.745Z,1011.97
2022-08-26T18:23:50.885Z,1012.01
2022-08-26T18:38:50.816Z,1012.01
2022-08-26T18:53:50.870Z,1012.06
2022-08-26T19:08:50.879Z,1012.29
2022-08-26T19:23:50.683Z,1012.29
2022-08-26T19:38:50.927Z,1012.35
2022-08-26T19:53:50.850Z,1012.39
2022-08-26T20:08:52.040Z,1012.46
2022-08-26T20:23:50.874Z,1012.41
2022-08-26T20:38:50.810Z,1012.55
2022-08-26T20:53:50.781Z,1012.70
2022-08-26T21:08:50.773Z,1012.73
2022-08-26T21:23:50.894Z,1012.69
2022-08-26T21:38:50.734Z,1012.87
2022-08-26T21:53:50.824Z,1012.89
2022-08-26T22:08:50.778Z,1012.96
2022-08-26T22:23:50.842Z,1013.01
2022-08-26T22:38:50.799Z,1013.12
2022-08-26T22:53:50.898Z,1013.09
2022-08-26T23:08:50.912Z,1013.11
2022-08-26T23:23:50.963Z,1013.04
2022-08-26T23:38:53.153Z,1013.08
2022-08-26T23:53:50.702Z,1012.95
